createdAt,value
2022-09-12T00:02:52.522Z,100
2022-09-12T00:12:52.604Z,100
2022-09-12T00:22:52.705Z,100
2022-09-12T00:42:53.710Z,100
2022-09-12T00:52:54.298Z,100
2022-09-12T01:02:54.720Z,100
2022-09-12T01:12:55.017Z,100
2022-09-12T01:22:55.969Z,100
2022-09-12T01:32:57.053Z,100
2022-09-12T01:42:57.586Z,100
2022-09-12T01:52:58.033Z,100
2022-09-12T02:02:58.793Z,100
2022-09-12T02:12:59.140Z,100
2022-09-12T02:22:59.869Z,100
2022-09-12T02:33:00.890Z,100
2022-09-12T02:43:01.650Z,100
2022-09-12T02:53:02.107Z,100
2022-09-12T03:03:02.383Z,100
2022-09-12T03:23:03.666Z,100
2022-09-12T03:33:04.402Z,100
2022-09-12T03:43:04.639Z,100
2022-09-12T03:53:04.960Z,100
2022-09-12T04:03:05.535Z,100
2022-09-12T04:13:05.947Z,100
2022-09-12T04:23:06.239Z,100
2022-09-12T04:33:08.175Z,100
2022-09-12T04:43:10.187Z,100
2022-09-12T04:53:08.158Z,100
2022-09-12T05:03:09.040Z,100
2022-09-12T05:13:09.833Z,100
2022-09-12T05:23:10.008Z,100
2022-09-12T05:43:11.083Z,100
2022-09-12T05:53:11.498Z,100
2022-09-12T06:03:12.447Z,100
2022-09-12T06:13:12.715Z,100
2022-09-12T06:23:12.902Z,100
2022-09-12T06:33:13.613Z,100
2022-09-12T06:43:14.443Z,100
2022-09-12T06:53:15.369Z,100
2022-09-12T07:13:16.939Z,100
2022-09-12T07:23:17.317Z,100
2022-09-12T07:33:18.229Z,100
2022-09-12T07:53:18.944Z,100
2022-09-12T08:23:21.072Z,100
2022-09-12T10:23:33.133Z,82
2022-09-12T11:03:35.097Z,73
2022-09-12T11:13:35.402Z,70
2022-09-12T12:03:37.962Z,65
2022-09-12T12:23:39.116Z,61
2022-09-12T12:33:39.688Z,61
2022-09-12T12:43:40.422Z,61
2022-09-12T13:03:41.587Z,58
2022-09-12T13:13:42.206Z,60
2022-09-12T13:23:42.926Z,58
2022-09-12T13:33:43.666Z,58
2022-09-12T13:43:44.075Z,56
2022-09-12T13:55:09.467Z,57
2022-09-12T14:13:45.751Z,56
2022-09-12T14:23:46.416Z,55
2022-09-12T14:33:46.672Z,56
2022-09-12T14:43:46.789Z,57
2022-09-12T14:53:47.369Z,56
2022-09-12T15:03:49.757Z,54
2022-09-12T15:13:48.823Z,55
2022-09-12T15:23:49.179Z,56
2022-09-12T15:33:49.882Z,56
2022-09-12T16:13:51.988Z,56
2022-09-12T16:23:52.133Z,56
2022-09-12T16:33:52.254Z,56
2022-09-12T16:43:53.081Z,58
2022-09-12T16:53:53.505Z,59
2022-09-12T17:03:54.584Z,60
2022-09-12T17:33:57.288Z,62
2022-09-12T17:43:57.553Z,66
2022-09-12T18:03:58.478Z,75
2022-09-12T18:13:59.202Z,78
2022-09-12T18:24:00.094Z,79
2022-09-12T18:34:01.048Z,82
2022-09-12T18:54:02.178Z,85
2022-09-12T19:04:02.825Z,86
2022-09-12T19:14:03.662Z,87
2022-09-12T20:14:07.694Z,92
2022-09-12T20:24:08.339Z,93
2022-09-12T20:34:09.192Z,94
2022-09-12T20:44:09.751Z,94
2022-09-12T20:54:10.455Z,95
2022-09-12T21:14:12.320Z,96
2022-09-12T21:24:12.742Z,96
2022-09-12T21:34:12.989Z,97
2022-09-12T21:44:13.295Z,97
2022-09-12T21:54:14.229Z,98
2022-09-12T22:14:15.320Z,98
2022-09-12T22:24:16.146Z,99
2022-09-12T22:44:17.836Z,99
2022-09-12T22:54:18.577Z,100
2022-09-12T23:04:19.110Z,100
2022-09-12T23:14:19.282Z,100
2022-09-12T23:24:20.187Z,100
2022-09-12T23:34:20.865Z,100
2022-09-12T23:54:21.948Z,99
